Time;durP1;ratioP1;P1;durP2;ratioP2;P2;SDS_P1;SDS_P2;PMS_P1;PMS_P2;Temp;Humidity;BMP_temperature;BMP_pressure;BME280_temperature;BME280_humidity;BME280_pressure;Samples;Min_cycle;Max_cycle;Signal;HPM_P1;HPM_P2
2021/07/22 00:01:25;;;;;;;11.27;6.20;;;19.40;99.90;;;;;;5025110;28;20034;-74
2021/07/22 00:03:50;;;;;;;12.38;6.43;;;19.30;99.90;;;;;;5017763;28;20037;-74
2021/07/22 00:06:16;;;;;;;14.65;6.20;;;19.30;99.90;;;;;;5014962;28;20045;-74
2021/07/22 00:08:41;;;;;;;11.23;7.03;;;19.30;99.90;;;;;;5011886;28;20449;-74
2021/07/22 00:11:07;;;;;;;11.48;6.43;;;19.30;99.90;;;;;;5016880;28;20404;-73
2021/07/22 00:13:33;;;;;;;12.77;6.30;;;19.20;99.90;;;;;;5018877;28;20032;-74
2021/07/22 00:15:58;;;;;;;13.40;6.88;;;19.30;99.90;;;;;;5022097;28;20026;-74
2021/07/22 00:18:25;;;;;;;9.32;6.20;;;19.30;99.90;;;;;;5020917;28;20284;-74
2021/07/22 00:20:50;;;;;;;10.10;6.18;;;19.30;99.90;;;;;;5017895;28;20112;-74
2021/07/22 00:23:16;;;;;;;10.27;6.35;;;19.20;99.90;;;;;;5023621;28;20120;-74
2021/07/22 00:25:42;;;;;;;9.00;6.20;;;19.30;99.90;;;;;;5017046;28;20029;-74
2021/07/22 00:28:08;;;;;;;11.30;7.18;;;19.30;99.90;;;;;;5018698;28;20033;-74
2021/07/22 00:30:33;;;;;;;13.25;7.18;;;19.20;99.90;;;;;;5014866;28;20152;-73
2021/07/22 00:32:59;;;;;;;9.50;6.18;;;19.30;99.90;;;;;;5020047;28;20481;-73
2021/07/22 00:35:25;;;;;;;12.95;6.32;;;19.30;99.90;;;;;;5024128;28;20049;-74
2021/07/22 00:37:50;;;;;;;10.13;5.82;;;19.30;99.90;;;;;;5024081;28;20412;-74
2021/07/22 00:40:16;;;;;;;13.10;6.63;;;19.30;99.90;;;;;;5014560;28;20097;-74
2021/07/22 00:42:59;;;;;;;11.57;6.38;;;19.30;99.90;;;;;;5018950;28;20108;-74
2021/07/22 00:45:24;;;;;;;14.38;6.43;;;19.20;99.90;;;;;;5016314;28;20029;-74
2021/07/22 00:47:50;;;;;;;14.57;6.65;;;19.20;99.90;;;;;;5018286;28;20025;-74
2021/07/22 00:50:16;;;;;;;14.32;7.10;;;19.30;99.90;;;;;;5019972;28;20025;-74
2021/07/22 00:52:41;;;;;;;10.88;6.57;;;19.20;99.90;;;;;;5018411;28;20026;-74
2021/07/22 00:55:07;;;;;;;12.23;6.53;;;19.20;99.90;;;;;;5017415;28;20096;-74
2021/07/22 00:57:32;;;;;;;9.27;6.10;;;19.30;99.90;;;;;;5019913;28;20060;-74
2021/07/22 00:59:58;;;;;;;11.40;6.22;;;19.20;99.90;;;;;;5021066;28;20044;-74
2021/07/22 01:02:23;;;;;;;13.98;6.45;;;19.20;99.90;;;;;;5009381;28;20477;-75
2021/07/22 01:04:49;;;;;;;12.98;7.15;;;19.20;99.90;;;;;;5015080;28;20447;-73
2021/07/22 01:07:14;;;;;;;8.52;5.75;;;19.20;99.90;;;;;;5019199;28;20046;-74
2021/07/22 01:09:40;;;;;;;11.98;6.55;;;19.20;99.90;;;;;;5017518;28;20411;-74
2021/07/22 01:12:06;;;;;;;10.25;6.60;;;19.20;99.90;;;;;;5016520;28;20025;-73
2021/07/22 01:14:31;;;;;;;14.30;6.38;;;19.20;99.90;;;;;;5018559;28;20076;-73
2021/07/22 01:16:57;;;;;;;13.90;6.88;;;19.10;99.90;;;;;;5018267;28;20035;-73
2021/07/22 01:19:22;;;;;;;13.18;6.20;;;19.10;99.90;;;;;;5018457;28;20345;-73
2021/07/22 01:21:47;;;;;;;10.23;6.78;;;19.10;99.90;;;;;;5018873;28;20037;-74
2021/07/22 01:24:13;;;;;;;13.70;6.00;;;19.10;99.90;;;;;;5016521;28;20659;-74
2021/07/22 01:26:38;;;;;;;15.27;6.80;;;19.00;99.90;;;;;;5011634;28;20021;-74
2021/07/22 01:29:04;;;;;;;11.65;6.20;;;19.00;99.90;;;;;;5013975;28;20022;-73
2021/07/22 01:31:30;;;;;;;11.20;6.93;;;19.00;99.90;;;;;;5021949;28;20051;-74
2021/07/22 01:33:55;;;;;;;9.48;6.10;;;19.10;99.90;;;;;;5015173;28;20022;-73
2021/07/22 01:36:23;;;;;;;13.50;6.35;;;19.00;99.90;;;;;;5014749;28;20049;-74
2021/07/22 01:38:53;;;;;;;11.02;7.00;;;19.00;99.90;;;;;;5012562;28;20025;-74
2021/07/22 01:41:18;;;;;;;11.45;5.93;;;19.00;99.90;;;;;;5016123;28;20029;-73
2021/07/22 01:43:44;;;;;;;11.48;6.57;;;18.90;99.90;;;;;;5023230;28;20510;-74
2021/07/22 01:46:09;;;;;;;11.27;7.18;;;18.90;99.90;;;;;;5013551;28;20034;-74
2021/07/22 01:48:35;;;;;;;9.93;6.43;;;18.90;99.90;;;;;;5017337;28;20606;-73
2021/07/22 01:51:00;;;;;;;10.77;6.43;;;18.80;99.90;;;;;;5019179;28;20380;-74
2021/07/22 01:53:26;;;;;;;13.98;7.18;;;18.80;99.90;;;;;;5024558;28;20033;-73
2021/07/22 01:55:51;;;;;;;12.82;7.05;;;18.80;99.90;;;;;;5018055;28;20029;-73
2021/07/22 01:58:17;;;;;;;11.52;6.90;;;18.80;99.90;;;;;;5013759;28;20034;-73
2021/07/22 02:00:42;;;;;;;10.65;6.30;;;18.80;99.90;;;;;;5022433;28;20414;-74
2021/07/22 02:03:08;;;;;;;11.00;6.80;;;18.70;99.90;;;;;;5014143;28;20047;-74
2021/07/22 02:05:33;;;;;;;11.88;6.80;;;18.70;99.90;;;;;;5016619;28;20025;-74
2021/07/22 02:07:59;;;;;;;12.25;6.70;;;18.70;99.90;;;;;;5012452;28;20042;-74
2021/07/22 02:10:24;;;;;;;15.73;6.90;;;18.70;99.90;;;;;;5017802;28;20116;-74
2021/07/22 02:12:50;;;;;;;11.30;7.03;;;18.60;99.90;;;;;;5018123;28;20532;-74
2021/07/22 02:15:15;;;;;;;11.40;6.47;;;18.50;99.90;;;;;;5016690;28;20069;-75
2021/07/22 02:17:41;;;;;;;12.93;7.03;;;18.50;99.90;;;;;;5020215;28;20562;-74
2021/07/22 02:20:08;;;;;;;10.80;6.75;;;18.40;99.90;;;;;;5018067;28;20029;-74
2021/07/22 02:22:33;;;;;;;13.23;6.63;;;18.40;99.90;;;;;;5017546;28;20057;-74
2021/07/22 02:24:59;;;;;;;12.23;7.22;;;18.30;99.90;;;;;;5018259;28;20035;-74
2021/07/22 02:27:24;;;;;;;11.40;7.07;;;18.30;99.90;;;;;;5024217;28;20025;-74
2021/07/22 02:29:50;;;;;;;11.55;6.95;;;18.30;99.90;;;;;;5025487;28;20369;-73
2021/07/22 02:32:15;;;;;;;12.73;7.65;;;18.20;99.90;;;;;;5019331;28;20021;-74
2021/07/22 02:34:40;;;;;;;11.38;6.60;;;18.20;99.90;;;;;;5021454;28;20028;-74
2021/07/22 02:37:06;;;;;;;12.02;6.38;;;18.10;99.90;;;;;;5023991;28;20100;-74
2021/07/22 02:39:32;;;;;;;14.73;7.85;;;18.20;99.90;;;;;;5022364;28;20025;-74
2021/07/22 02:41:58;;;;;;;12.63;7.22;;;18.10;99.90;;;;;;5023916;28;20017;-74
2021/07/22 02:44:23;;;;;;;11.50;6.60;;;18.10;99.90;;;;;;5025855;28;20026;-74
2021/07/22 02:46:49;;;;;;;13.13;6.80;;;18.10;99.90;;;;;;5025224;28;20472;-74
2021/07/22 02:49:14;;;;;;;14.32;6.70;;;18.00;99.90;;;;;;5026264;28;20033;-74
2021/07/22 02:51:40;;;;;;;11.63;6.43;;;18.00;99.90;;;;;;5020566;28;20583;-74
2021/07/22 02:54:05;;;;;;;15.77;6.68;;;18.00;99.90;;;;;;5022142;28;20129;-74
2021/07/22 02:56:31;;;;;;;12.23;6.93;;;17.90;99.90;;;;;;5018545;28;20041;-74
2021/07/22 02:58:56;;;;;;;12.85;6.95;;;17.90;99.90;;;;;;5027099;28;20068;-74
2021/07/22 03:01:22;;;;;;;10.18;6.50;;;17.80;99.90;;;;;;5020674;28;20029;-73
2021/07/22 03:03:47;;;;;;;10.70;7.00;;;17.80;99.90;;;;;;5023726;28;20050;-74
2021/07/22 03:06:16;;;;;;;14.55;7.00;;;17.80;99.90;;;;;;5010592;28;20497;-74
2021/07/22 03:08:41;;;;;;;12.52;6.60;;;17.70;99.90;;;;;;5017537;28;20026;-74
2021/07/22 03:11:10;;;;;;;12.70;6.55;;;17.70;99.90;;;;;;5020161;28;20031;-74
2021/07/22 03:13:36;;;;;;;11.90;6.57;;;17.70;99.90;;;;;;5020326;28;20043;-74
2021/07/22 03:16:02;;;;;;;13.20;7.15;;;17.60;99.90;;;;;;5015726;28;20020;-74
2021/07/22 03:18:28;;;;;;;13.93;6.70;;;17.60;99.90;;;;;;5019894;28;20112;-74
2021/07/22 03:20:53;;;;;;;11.57;6.93;;;17.50;99.90;;;;;;5018021;28;20672;-74
2021/07/22 03:23:18;;;;;;;11.07;6.45;;;17.50;99.90;;;;;;5022375;28;20029;-74
2021/07/22 03:25:44;;;;;;;13.00;7.18;;;17.50;99.90;;;;;;5024670;28;20025;-74
2021/07/22 03:28:09;;;;;;;12.30;6.85;;;17.50;99.90;;;;;;5017562;28;20029;-74
2021/07/22 03:30:35;;;;;;;13.13;6.80;;;17.40;99.90;;;;;;5020737;28;20033;-74
2021/07/22 03:33:03;;;;;;;10.48;6.90;;;17.40;99.90;;;;;;5022648;28;20112;-74
2021/07/22 03:35:29;;;;;;;10.18;6.53;;;17.40;99.90;;;;;;5014118;28;20079;-74
2021/07/22 03:37:54;;;;;;;11.38;6.80;;;17.40;99.90;;;;;;5019554;28;20685;-74
2021/07/22 03:40:20;;;;;;;12.13;6.95;;;17.40;99.90;;;;;;5017534;28;20044;-73
2021/07/22 03:42:45;;;;;;;14.68;6.97;;;17.40;99.90;;;;;;5019932;28;20025;-74
2021/07/22 03:45:11;;;;;;;10.13;6.78;;;17.40;99.90;;;;;;5013412;28;20029;-73
2021/07/22 03:47:37;;;;;;;10.50;6.50;;;17.50;99.90;;;;;;5016593;28;20171;-73
2021/07/22 03:50:02;;;;;;;15.73;6.82;;;17.50;99.90;;;;;;5020059;28;20104;-74
2021/07/22 03:52:28;;;;;;;12.57;7.05;;;17.40;99.90;;;;;;5015317;28;20032;-73
2021/07/22 03:54:53;;;;;;;11.65;6.80;;;17.50;99.90;;;;;;5019884;28;20504;-74
2021/07/22 03:57:19;;;;;;;11.38;6.97;;;17.50;99.90;;;;;;5019020;28;20021;-73
2021/07/22 03:59:44;;;;;;;12.30;7.00;;;17.50;99.90;;;;;;5021586;28;20025;-74
2021/07/22 04:02:10;;;;;;;13.52;6.78;;;17.50;99.90;;;;;;5015285;28;20037;-74
2021/07/22 04:04:35;;;;;;;14.00;7.05;;;17.50;99.90;;;;;;5020749;28;20071;-74
2021/07/22 04:07:01;;;;;;;15.10;6.72;;;17.50;99.90;;;;;;4988795;28;1014548;-74
2021/07/22 04:09:26;;;;;;;12.43;7.18;;;17.50;99.90;;;;;;5016270;28;20378;-74
2021/07/22 04:11:52;;;;;;;11.35;7.07;;;17.50;99.90;;;;;;5016104;28;20049;-73
2021/07/22 04:14:17;;;;;;;12.40;6.82;;;17.50;99.90;;;;;;5018093;28;20044;-74
2021/07/22 04:16:44;;;;;;;10.70;6.60;;;17.50;99.90;;;;;;5023739;28;20053;-74
2021/07/22 04:19:10;;;;;;;12.32;7.03;;;17.50;99.90;;;;;;5014829;28;20037;-74
2021/07/22 04:21:35;;;;;;;14.55;7.03;;;17.50;99.90;;;;;;5020800;28;20029;-74
2021/07/22 04:24:01;;;;;;;11.63;7.05;;;17.50;99.90;;;;;;5019190;28;20061;-73
2021/07/22 04:26:26;;;;;;;11.07;6.70;;;17.50;99.90;;;;;;5024574;28;20053;-74
2021/07/22 04:28:52;;;;;;;13.25;7.13;;;17.50;99.90;;;;;;5021366;28;20022;-74
2021/07/22 04:31:18;;;;;;;11.98;7.22;;;17.60;99.90;;;;;;5018649;28;20155;-74
2021/07/22 04:33:45;;;;;;;14.10;7.45;;;17.60;99.90;;;;;;5019253;28;21273;-74
2021/07/22 04:36:11;;;;;;;12.48;6.70;;;17.60;99.90;;;;;;5020574;28;20041;-74
2021/07/22 04:38:37;;;;;;;11.55;7.55;;;17.70;99.90;;;;;;5014960;28;20042;-74
2021/07/22 04:41:04;;;;;;;12.75;7.00;;;17.70;99.90;;;;;;5014095;28;20024;-74
2021/07/22 04:43:29;;;;;;;11.98;7.28;;;17.70;99.90;;;;;;5018797;28;20030;-74
2021/07/22 04:45:55;;;;;;;12.45;7.57;;;17.70;99.90;;;;;;5006278;28;20040;-74
2021/07/22 04:48:20;;;;;;;16.95;7.47;;;17.80;99.90;;;;;;5016054;28;20025;-74
2021/07/22 04:50:45;;;;;;;14.15;7.75;;;17.80;99.90;;;;;;5016250;28;20030;-74
2021/07/22 04:53:11;;;;;;;14.80;7.95;;;17.80;99.90;;;;;;5018195;28;20025;-74
2021/07/22 04:55:36;;;;;;;16.27;8.02;;;17.90;99.90;;;;;;5017394;28;20440;-74
2021/07/22 04:58:02;;;;;;;12.23;8.05;;;18.00;99.90;;;;;;5017484;28;20479;-74
2021/07/22 05:00:28;;;;;;;14.32;7.82;;;18.00;99.90;;;;;;5021126;28;20037;-74
2021/07/22 05:03:00;;;;;;;10.73;7.28;;;18.00;99.90;;;;;;5021758;28;20071;-75
2021/07/22 05:05:27;;;;;;;11.77;7.65;;;18.10;99.90;;;;;;5015395;28;20040;-74
2021/07/22 05:07:52;;;;;;;15.68;7.80;;;18.10;99.90;;;;;;5017939;28;20076;-74
2021/07/22 05:10:18;;;;;;;15.15;7.65;;;18.10;99.90;;;;;;5016642;28;20084;-74
2021/07/22 05:12:43;;;;;;;13.02;7.95;;;18.10;99.90;;;;;;5011586;28;20036;-74
2021/07/22 05:15:10;;;;;;;11.85;7.10;;;18.20;99.90;;;;;;5013638;28;20171;-74
2021/07/22 05:17:38;;;;;;;12.55;7.50;;;18.20;99.90;;;;;;5003464;28;20043;-74
2021/07/22 05:20:05;;;;;;;12.55;7.40;;;18.20;99.90;;;;;;5012538;28;20029;-74
2021/07/22 05:22:31;;;;;;;14.07;8.02;;;18.30;99.90;;;;;;5021495;28;20539;-74
2021/07/22 05:24:56;;;;;;;11.98;7.13;;;18.30;99.90;;;;;;5020188;28;20079;-74
2021/07/22 05:27:22;;;;;;;11.70;6.85;;;18.40;99.90;;;;;;5021044;28;20065;-74
2021/07/22 05:29:47;;;;;;;18.92;7.57;;;18.50;99.90;;;;;;5014131;28;20018;-74
2021/07/22 05:32:14;;;;;;;12.93;7.22;;;18.50;99.90;;;;;;5021056;28;20106;-74
2021/07/22 05:34:39;;;;;;;13.82;6.95;;;18.50;99.90;;;;;;5022370;28;20026;-74
2021/07/22 05:37:07;;;;;;;11.02;6.90;;;18.50;99.90;;;;;;5017650;28;20022;-75
2021/07/22 05:39:32;;;;;;;11.85;6.15;;;18.60;99.90;;;;;;5016488;28;20057;-74
2021/07/22 05:41:58;;;;;;;10.43;6.80;;;18.60;99.90;;;;;;5015441;28;20060;-74
2021/07/22 05:44:23;;;;;;;11.23;6.40;;;18.70;99.90;;;;;;5020166;28;20128;-74
2021/07/22 05:46:49;;;;;;;10.38;6.78;;;18.70;99.90;;;;;;5016928;28;20033;-75
2021/07/22 05:49:14;;;;;;;10.10;6.07;;;18.80;99.90;;;;;;5007900;28;20033;-75
2021/07/22 05:51:40;;;;;;;11.23;7.30;;;18.90;99.90;;;;;;5002810;28;20041;-74
2021/07/22 05:54:05;;;;;;;10.07;6.47;;;19.00;99.90;;;;;;5014010;28;20495;-75
2021/07/22 05:56:31;;;;;;;14.90;6.40;;;19.00;99.90;;;;;;5013654;28;20399;-75
2021/07/22 05:58:56;;;;;;;12.10;6.50;;;19.10;99.90;;;;;;5018065;28;20061;-75
2021/07/22 06:01:22;;;;;;;10.52;6.25;;;19.20;99.90;;;;;;5014981;28;20032;-74
2021/07/22 06:03:47;;;;;;;10.50;6.18;;;19.20;99.90;;;;;;5013760;28;20033;-74
2021/07/22 06:06:13;;;;;;;14.98;6.72;;;19.30;99.90;;;;;;5015637;28;20058;-74
2021/07/22 06:08:38;;;;;;;15.90;6.63;;;19.30;99.90;;;;;;5018300;28;20027;-74
2021/07/22 06:11:05;;;;;;;10.95;6.22;;;19.40;99.90;;;;;;5015012;28;20021;-74
2021/07/22 06:13:31;;;;;;;12.73;6.00;;;19.40;99.90;;;;;;5016727;28;20053;-74
2021/07/22 06:15:57;;;;;;;10.35;5.95;;;19.50;99.90;;;;;;5020804;28;20049;-74
2021/07/22 06:18:23;;;;;;;9.10;6.20;;;19.50;99.90;;;;;;5013647;28;20048;-74
2021/07/22 06:20:48;;;;;;;9.60;6.38;;;19.60;99.90;;;;;;5020892;28;20697;-74
2021/07/22 06:23:13;;;;;;;9.68;6.55;;;19.70;99.90;;;;;;5019246;28;20366;-74
2021/07/22 06:25:39;;;;;;;10.52;6.47;;;19.70;99.90;;;;;;5018391;28;20215;-74
2021/07/22 06:28:04;;;;;;;9.50;6.15;;;19.70;99.90;;;;;;5014929;28;20029;-74
2021/07/22 06:30:31;;;;;;;10.43;6.45;;;19.70;99.90;;;;;;5017753;28;20718;-74
2021/07/22 06:32:56;;;;;;;9.38;6.30;;;19.80;99.90;;;;;;5015682;28;20034;-74
2021/07/22 06:35:22;;;;;;;9.18;6.47;;;19.80;99.90;;;;;;5010442;28;20744;-74
2021/07/22 06:37:48;;;;;;;9.75;6.00;;;19.80;99.90;;;;;;5016956;28;20037;-74
2021/07/22 06:40:14;;;;;;;9.45;6.35;;;19.80;99.90;;;;;;5016787;28;20038;-74
2021/07/22 06:42:41;;;;;;;11.30;6.80;;;19.80;99.90;;;;;;5017947;28;20033;-74
2021/07/22 06:45:07;;;;;;;12.95;6.47;;;19.90;99.90;;;;;;5021134;28;20036;-75
2021/07/22 06:47:35;;;;;;;10.18;6.20;;;19.90;99.90;;;;;;5019046;28;20029;-74
2021/07/22 06:50:01;;;;;;;10.27;6.40;;;19.90;99.90;;;;;;5019054;28;20053;-74
2021/07/22 06:52:26;;;;;;;13.30;6.03;;;20.00;99.90;;;;;;5021512;28;20049;-74
2021/07/22 06:54:52;;;;;;;9.13;6.15;;;20.00;99.90;;;;;;5014522;28;20038;-74
2021/07/22 06:57:17;;;;;;;10.32;5.88;;;20.00;99.90;;;;;;5018695;28;20036;-74
2021/07/22 06:59:43;;;;;;;8.90;5.53;;;20.00;99.90;;;;;;5013443;28;20440;-74
2021/07/22 07:02:08;;;;;;;10.30;6.53;;;20.10;99.90;;;;;;5016424;28;20026;-74
2021/07/22 07:04:33;;;;;;;10.23;6.22;;;20.00;99.90;;;;;;5020791;28;20029;-74
2021/07/22 07:06:59;;;;;;;10.70;6.47;;;20.00;99.90;;;;;;5014548;28;20116;-74
2021/07/22 07:09:24;;;;;;;12.05;6.82;;;20.10;99.90;;;;;;5020753;28;20026;-74
2021/07/22 07:11:50;;;;;;;12.32;6.78;;;20.00;99.90;;;;;;5019283;28;20534;-74
2021/07/22 07:14:15;;;;;;;10.15;6.03;;;20.00;99.90;;;;;;5026409;28;20432;-74
2021/07/22 07:16:41;;;;;;;12.98;6.15;;;20.00;99.90;;;;;;5022028;28;20048;-74
2021/07/22 07:19:07;;;;;;;12.27;6.40;;;20.00;99.90;;;;;;5019455;28;20029;-74
2021/07/22 07:21:39;;;;;;;10.10;5.55;;;20.10;99.90;;;;;;5023419;28;20116;-74
2021/07/22 07:24:04;;;;;;;;;;;20.10;99.50;;;;;;5016402;28;20443;-75
2021/07/22 07:26:30;;;;;;;9.00;5.38;;;20.10;99.50;;;;;;5023724;28;19964;-74
2021/07/22 07:28:55;;;;;;;11.95;6.38;;;20.10;98.30;;;;;;5023285;28;20115;-74
2021/07/22 07:31:22;;;;;;;10.45;6.03;;;20.20;98.90;;;;;;5023730;28;20087;-75
2021/07/22 07:33:48;;;;;;;13.80;6.90;;;20.20;98.40;;;;;;5022665;28;20038;-74
2021/07/22 07:36:13;;;;;;;11.15;6.22;;;20.20;98.10;;;;;;5023711;28;20851;-74
2021/07/22 07:38:39;;;;;;;11.65;6.72;;;20.30;98.10;;;;;;5020362;28;20042;-74
2021/07/22 07:41:04;;;;;;;10.70;6.13;;;20.30;97.70;;;;;;5018852;28;20401;-74
2021/07/22 07:43:30;;;;;;;12.88;6.07;;;20.30;97.90;;;;;;5018874;28;20049;-74
2021/07/22 07:45:55;;;;;;;11.50;5.78;;;20.40;98.10;;;;;;5018185;28;20022;-75
2021/07/22 07:48:21;;;;;;;11.18;6.05;;;20.40;98.30;;;;;;5022451;28;20052;-75
2021/07/22 07:50:46;;;;;;;10.18;5.57;;;20.60;97.60;;;;;;5021029;28;21311;-74
2021/07/22 07:53:19;;;;;;;11.77;6.10;;;20.60;97.30;;;;;;5022499;28;20022;-74
2021/07/22 07:55:46;;;;;;;9.80;5.60;;;20.70;97.30;;;;;;5019759;28;20029;-74
2021/07/22 07:58:13;;;;;;;9.80;6.18;;;20.70;99.30;;;;;;5015374;28;20026;-74
2021/07/22 08:00:41;;;;;;;12.95;6.35;;;20.70;99.30;;;;;;5023856;28;20051;-74
2021/07/22 08:03:16;;;;;;;12.45;5.97;;;20.70;98.60;;;;;;5014469;28;20033;-74
2021/07/22 08:05:42;;;;;;;12.15;6.35;;;20.80;97.90;;;;;;5016706;28;20034;-74
2021/07/22 08:08:07;;;;;;;9.90;5.78;;;20.80;97.10;;;;;;5019595;28;20105;-74
2021/07/22 08:10:33;;;;;;;9.43;5.70;;;20.90;96.30;;;;;;5021940;28;20120;-74
2021/07/22 08:12:58;;;;;;;12.73;6.93;;;21.00;95.70;;;;;;5016153;28;20041;-74
2021/07/22 08:15:24;;;;;;;9.55;5.40;;;21.00;95.70;;;;;;5022792;28;20064;-74
2021/07/22 08:17:49;;;;;;;9.18;5.90;;;21.10;94.90;;;;;;5019099;28;20556;-74
2021/07/22 08:20:15;;;;;;;11.25;5.88;;;21.20;94.50;;;;;;5021523;28;20049;-74
2021/07/22 08:22:40;;;;;;;10.93;5.80;;;21.30;94.60;;;;;;5021596;28;20029;-74
2021/07/22 08:25:07;;;;;;;9.20;5.93;;;21.30;94.70;;;;;;5018888;28;20042;-74
2021/07/22 08:27:33;;;;;;;10.15;5.57;;;21.20;94.40;;;;;;5022328;28;20163;-74
2021/07/22 08:29:59;;;;;;;11.20;5.68;;;21.10;94.10;;;;;;5021653;28;20540;-74
2021/07/22 08:32:25;;;;;;;8.90;5.32;;;21.10;93.70;;;;;;5021880;28;20032;-74
2021/07/22 08:34:50;;;;;;;8.20;4.50;;;21.20;93.50;;;;;;5019649;28;20375;-75
2021/07/22 08:37:16;;;;;;;8.52;5.55;;;21.20;94.30;;;;;;5020781;28;20044;-76
2021/07/22 08:39:44;;;;;;;9.18;5.60;;;21.30;94.60;;;;;;5019879;28;20102;-75
2021/07/22 08:42:11;;;;;;;9.77;5.55;;;21.40;94.40;;;;;;5024600;28;20048;-75
2021/07/22 08:44:38;;;;;;;9.68;6.00;;;21.50;93.70;;;;;;5024149;28;20106;-74
2021/07/22 08:47:05;;;;;;;9.88;5.38;;;21.60;92.40;;;;;;5018159;28;20034;-74
2021/07/22 08:49:35;;;;;;;12.05;5.80;;;21.70;93.10;;;;;;5019570;28;20620;-74
2021/07/22 08:52:05;;;;;;;7.78;5.18;;;21.90;91.70;;;;;;5015768;28;20029;-74
2021/07/22 08:54:30;;;;;;;11.07;4.95;;;22.10;92.10;;;;;;5020419;28;20032;-74
2021/07/22 08:56:56;;;;;;;9.40;5.57;;;22.20;84.40;;;;;;5023837;28;20025;-75
2021/07/22 08:59:24;;;;;;;10.38;5.90;;;22.30;85.60;;;;;;5022623;28;20026;-76
2021/07/22 09:01:52;;;;;;;9.52;5.95;;;22.20;85.10;;;;;;5014283;28;20025;-77
2021/07/22 09:04:17;;;;;;;9.60;5.65;;;22.30;88.00;;;;;;5014579;28;20133;-75
2021/07/22 09:06:43;;;;;;;10.88;5.88;;;22.40;87.00;;;;;;5017745;28;20449;-77
2021/07/22 09:09:16;;;;;;;8.82;5.22;;;22.60;84.60;;;;;;5019807;28;20087;-78
2021/07/22 09:12:01;;;;;;;12.45;5.30;;;22.80;86.50;;;;;;5016014;28;20029;-77
2021/07/22 09:14:29;;;;;;;9.57;5.57;;;22.90;84.30;;;;;;5024275;28;20412;-76
2021/07/22 09:16:55;;;;;;;11.27;6.30;;;23.00;83.30;;;;;;5022876;28;20065;-77
2021/07/22 09:19:41;;;;;;;8.45;5.25;;;23.00;82.30;;;;;;5025064;28;20127;-77
2021/07/22 09:22:10;;;;;;;11.00;5.97;;;22.90;83.60;;;;;;5025761;28;20025;-76
2021/07/22 09:24:49;;;;;;;7.90;5.15;;;22.70;83.20;;;;;;5021489;28;20028;-76
2021/07/22 09:27:41;;;;;;;9.10;4.97;;;22.60;82.60;;;;;;5023584;28;20044;-76
2021/07/22 09:30:19;;;;;;;12.55;5.65;;;22.50;84.80;;;;;;5025917;28;20014;-76
2021/07/22 09:32:49;;;;;;;8.93;5.45;;;22.60;85.90;;;;;;5024686;28;20022;-77
2021/07/22 09:35:20;;;;;;;7.93;5.03;;;22.60;85.00;;;;;;5026480;28;20079;-76
2021/07/22 09:37:56;;;;;;;8.00;5.10;;;22.60;86.70;;;;;;5016969;28;20496;-75
2021/07/22 09:40:24;;;;;;;8.63;4.70;;;22.70;86.80;;;;;;5013178;28;20594;-77
2021/07/22 09:42:50;;;;;;;7.20;4.95;;;22.80;87.90;;;;;;5016019;28;20106;-76
2021/07/22 09:45:24;;;;;;;8.45;5.15;;;22.90;86.00;;;;;;5017819;28;20041;-76
2021/07/22 09:47:51;;;;;;;9.52;5.50;;;23.00;84.30;;;;;;5015030;28;20029;-76
2021/07/22 09:50:20;;;;;;;6.90;4.75;;;23.00;81.70;;;;;;5014084;28;20082;-77
2021/07/22 09:52:47;;;;;;;8.85;4.90;;;22.90;81.60;;;;;;5018802;28;20270;-77
2021/07/22 09:55:30;;;;;;;11.63;6.18;;;22.70;83.90;;;;;;5018759;28;20113;-77
2021/07/22 09:58:07;;;;;;;9.85;5.80;;;22.60;83.10;;;;;;5017815;28;20128;-77
2021/07/22 10:00:35;;;;;;;7.25;4.90;;;22.50;84.60;;;;;;5015391;28;20064;-76
2021/07/22 10:03:06;;;;;;;9.73;5.50;;;22.40;84.50;;;;;;5017365;28;20058;-76
2021/07/22 10:05:38;;;;;;;8.23;5.07;;;22.30;86.00;;;;;;5017084;28;20904;-76
2021/07/22 10:08:05;;;;;;;6.85;4.45;;;22.20;89.40;;;;;;5017734;28;20397;-77
2021/07/22 10:10:31;;;;;;;8.02;5.72;;;22.10;88.60;;;;;;5021110;28;20037;-74
2021/07/22 10:12:58;;;;;;;12.90;6.03;;;22.00;88.30;;;;;;5014326;28;20256;-77
2021/07/22 10:15:27;;;;;;;10.80;5.70;;;22.00;89.70;;;;;;5015103;28;20021;-77
2021/07/22 10:17:55;;;;;;;14.10;6.15;;;21.90;90.20;;;;;;5014920;28;20083;-76
2021/07/22 10:20:28;;;;;;;10.18;5.90;;;21.90;89.60;;;;;;5015079;28;20061;-76
2021/07/22 10:22:54;;;;;;;6.68;4.95;;;21.90;89.90;;;;;;5018039;28;20138;-76
2021/07/22 10:25:20;;;;;;;12.90;5.20;;;21.90;90.50;;;;;;5017522;28;20076;-77
2021/07/22 10:27:47;;;;;;;12.95;6.05;;;21.90;90.20;;;;;;5014726;28;20506;-76
2021/07/22 10:30:15;;;;;;;15.27;5.50;;;22.00;90.10;;;;;;5014770;28;20108;-77
2021/07/22 10:32:47;;;;;;;10.05;5.50;;;22.00;90.00;;;;;;5018162;28;20168;-75
2021/07/22 10:35:13;;;;;;;11.80;5.90;;;22.10;89.70;;;;;;5014329;28;21120;-77
2021/07/22 10:38:09;;;;;;;8.15;5.93;;;22.30;89.00;;;;;;5018571;28;20029;-76
2021/07/22 10:40:57;;;;;;;44.47;6.25;;;22.40;87.80;;;;;;5013117;28;20026;-76
2021/07/22 10:43:43;;;;;;;8.88;5.75;;;22.60;87.20;;;;;;5020589;28;20029;-77
2021/07/22 10:46:11;;;;;;;14.95;6.18;;;22.70;85.90;;;;;;5026817;28;20034;-82
2021/07/22 10:48:37;;;;;;;33.55;5.32;;;22.90;86.50;;;;;;5020623;28;20033;-77
2021/07/22 10:51:08;;;;;;;17.80;5.50;;;23.00;85.80;;;;;;5017838;28;20057;-74
2021/07/22 10:53:44;;;;;;;11.88;5.43;;;23.10;83.70;;;;;;5021555;28;20034;-76
2021/07/22 10:56:16;;;;;;;11.35;5.80;;;23.20;81.80;;;;;;5023995;28;20040;-74
2021/07/22 10:58:41;;;;;;;15.98;5.95;;;23.30;78.50;;;;;;5028239;28;20053;-75
2021/07/22 11:01:07;;;;;;;20.85;5.53;;;23.40;77.90;;;;;;5019404;28;20119;-74
2021/07/22 11:03:36;;;;;;;10.63;6.03;;;23.40;80.10;;;;;;5021734;28;20044;-74
2021/07/22 11:06:06;;;;;;;12.50;5.90;;;23.50;81.20;;;;;;5025228;28;20090;-74
2021/07/22 11:08:33;;;;;;;10.77;5.82;;;23.50;81.10;;;;;;5027834;28;20026;-74
2021/07/22 11:11:07;;;;;;;11.35;5.18;;;23.60;76.90;;;;;;5028327;28;20507;-74
2021/07/22 11:13:41;;;;;;;10.98;6.03;;;23.60;78.30;;;;;;5021668;28;20033;-74
2021/07/22 11:16:19;;;;;;;14.13;6.00;;;23.60;79.60;;;;;;5028507;28;20037;-73
2021/07/22 11:18:52;;;;;;;12.82;6.22;;;23.60;79.20;;;;;;5024279;28;20472;-77
2021/07/22 11:21:28;;;;;;;10.55;5.80;;;23.70;83.50;;;;;;5017491;28;20093;-77
2021/07/22 11:24:03;;;;;;;11.07;5.80;;;23.60;78.00;;;;;;5027861;28;20477;-77
2021/07/22 11:26:37;;;;;;;8.98;5.80;;;23.50;77.70;;;;;;5025369;28;20060;-77
2021/07/22 11:29:04;;;;;;;12.32;6.13;;;23.40;77.70;;;;;;5023538;28;20042;-76
2021/07/22 11:31:31;;;;;;;10.43;5.43;;;23.30;77.20;;;;;;5031286;28;20388;-77
2021/07/22 11:34:02;;;;;;;9.15;5.45;;;23.20;80.50;;;;;;5024206;28;20072;-74
2021/07/22 11:36:29;;;;;;;9.80;6.07;;;23.10;78.40;;;;;;5029708;28;20029;-74
2021/07/22 11:38:55;;;;;;;10.57;5.45;;;23.00;77.90;;;;;;5024205;28;20029;-76
2021/07/22 11:41:22;;;;;;;9.68;5.90;;;23.00;79.40;;;;;;5024499;28;20087;-77
2021/07/22 11:43:54;;;;;;;8.70;5.05;;;22.90;77.30;;;;;;5027720;28;20034;-77
2021/07/22 11:46:36;;;;;;;9.23;6.20;;;22.90;77.90;;;;;;5026471;28;20703;-78
2021/07/22 11:49:16;;;;;;;11.40;6.05;;;22.90;79.20;;;;;;5023154;28;20105;-77
2021/07/22 11:51:47;;;;;;;10.40;6.05;;;23.00;78.90;;;;;;5025656;28;20021;-77
2021/07/22 11:54:14;;;;;;;8.48;5.68;;;23.20;78.50;;;;;;5022679;28;20025;-76
2021/07/22 11:56:40;;;;;;;11.05;5.50;;;23.20;78.70;;;;;;5023986;28;20040;-77
2021/07/22 11:59:09;;;;;;;10.88;6.07;;;23.40;77.80;;;;;;5022083;28;20160;-77
2021/07/22 12:01:45;;;;;;;16.73;6.00;;;23.40;78.60;;;;;;5028013;28;20032;-76
2021/07/22 12:04:11;;;;;;;9.60;5.53;;;23.40;78.20;;;;;;5028192;28;20037;-76
2021/07/22 12:06:37;;;;;;;8.82;6.32;;;23.20;77.40;;;;;;5021531;28;20046;-76
2021/07/22 12:09:09;;;;;;;8.55;5.78;;;23.00;77.60;;;;;;5025975;28;20033;-76
2021/07/22 12:11:49;;;;;;;8.90;5.60;;;22.90;78.50;;;;;;5031172;28;20024;-76
2021/07/22 12:14:25;;;;;;;91.35;11.50;;;22.70;79.20;;;;;;5027766;28;20388;-76
2021/07/22 12:16:52;;;;;;;112.47;10.88;;;22.50;82.50;;;;;;5030527;28;20026;-77
2021/07/22 12:19:25;;;;;;;12.00;6.38;;;22.30;84.10;;;;;;5028291;28;20488;-77
2021/07/22 12:22:16;;;;;;;148.38;13.80;;;22.20;84.20;;;;;;5025365;28;20075;-76
2021/07/22 12:24:41;;;;;;;9.80;5.82;;;22.10;87.00;;;;;;5029333;28;20449;-76
2021/07/22 12:27:33;;;;;;;12.93;6.55;;;22.00;89.60;;;;;;5023180;28;20120;-76
2021/07/22 12:30:07;;;;;;;16.83;6.45;;;21.80;92.50;;;;;;5021650;28;20091;-76
2021/07/22 12:32:36;;;;;;;13.60;6.78;;;21.80;92.70;;;;;;5030498;28;20472;-76
2021/07/22 12:35:02;;;;;;;11.55;6.57;;;21.70;95.80;;;;;;5025867;28;20029;-76
2021/07/22 12:37:54;;;;;;;10.02;6.10;;;21.70;97.70;;;;;;5022805;28;20033;-76
2021/07/22 12:40:38;;;;;;;63.55;9.40;;;21.70;99.10;;;;;;5023578;28;20026;-76